sensor_id;sensor_type;location;lat;lon;timestamp;P1;durP1;ratioP1;P2;durP2;ratioP2
13421;SDS011;6782;55.904;13.396;2022-07-29T00:02:16;3.85;;;1.88;;
13421;SDS011;6782;55.904;13.396;2022-07-29T00:05:03;2.97;;;1.73;;
13421;SDS011;6782;55.904;13.396;2022-07-29T00:07:50;2.78;;;1.92;;
13421;SDS011;6782;55.904;13.396;2022-07-29T00:10:37;5.03;;;2.08;;
13421;SDS011;6782;55.904;13.396;2022-07-29T00:13:23;2.10;;;1.90;;
13421;SDS011;6782;55.904;13.396;2022-07-29T00:16:12;3.55;;;1.77;;
13421;SDS011;6782;55.904;13.396;2022-07-29T00:18:59;2.28;;;1.80;;
13421;SDS011;6782;55.904;13.396;2022-07-29T00:21:45;2.13;;;1.90;;
13421;SDS011;6782;55.904;13.396;2022-07-29T00:24:32;2.83;;;1.75;;
13421;SDS011;6782;55.904;13.396;2022-07-29T00:27:19;3.47;;;2.10;;
13421;SDS011;6782;55.904;13.396;2022-07-29T00:30:07;3.40;;;2.20;;
13421;SDS011;6782;55.904;13.396;2022-07-29T00:32:56;2.50;;;1.80;;
13421;SDS011;6782;55.904;13.396;2022-07-29T00:35:42;2.45;;;1.80;;
13421;SDS011;6782;55.904;13.396;2022-07-29T00:38:31;3.67;;;1.90;;
13421;SDS011;6782;55.904;13.396;2022-07-29T00:41:18;2.88;;;1.63;;
13421;SDS011;6782;55.904;13.396;2022-07-29T00:44:05;2.60;;;2.05;;
13421;SDS011;6782;55.904;13.396;2022-07-29T00:46:52;3.05;;;1.75;;
13421;SDS011;6782;55.904;13.396;2022-07-29T00:49:41;3.25;;;1.80;;
13421;SDS011;6782;55.904;13.396;2022-07-29T00:52:27;2.92;;;1.80;;
13421;SDS011;6782;55.904;13.396;2022-07-29T00:55:15;2.55;;;1.58;;
13421;SDS011;6782;55.904;13.396;2022-07-29T00:58:02;2.10;;;1.83;;
13421;SDS011;6782;55.904;13.396;2022-07-29T01:00:49;3.00;;;1.90;;
13421;SDS011;6782;55.904;13.396;2022-07-29T01:03:36;2.33;;;1.77;;
13421;SDS011;6782;55.904;13.396;2022-07-29T01:06:24;3.42;;;2.08;;
13421;SDS011;6782;55.904;13.396;2022-07-29T01:09:11;2.42;;;2.00;;
13421;SDS011;6782;55.904;13.396;2022-07-29T01:11:58;3.88;;;2.10;;
13421;SDS011;6782;55.904;13.396;2022-07-29T01:14:45;2.55;;;1.90;;
13421;SDS011;6782;55.904;13.396;2022-07-29T01:17:33;5.18;;;2.13;;
13421;SDS011;6782;55.904;13.396;2022-07-29T01:20:24;3.87;;;2.00;;
13421;SDS011;6782;55.904;13.396;2022-07-29T01:23:27;2.63;;;1.87;;
13421;SDS011;6782;55.904;13.396;2022-07-29T01:29:25;2.73;;;1.80;;
13421;SDS011;6782;55.904;13.396;2022-07-29T01:32:13;2.88;;;1.92;;
13421;SDS011;6782;55.904;13.396;2022-07-29T01:35:02;2.10;;;1.90;;
13421;SDS011;6782;55.904;13.396;2022-07-29T01:37:51;3.10;;;2.17;;
13421;SDS011;6782;55.904;13.396;2022-07-29T01:40:43;3.10;;;2.10;;
13421;SDS011;6782;55.904;13.396;2022-07-29T01:43:32;2.37;;;2.03;;
13421;SDS011;6782;55.904;13.396;2022-07-29T01:46:23;4.17;;;2.23;;
13421;SDS011;6782;55.904;13.396;2022-07-29T01:49:13;2.13;;;1.90;;
13421;SDS011;6782;55.904;13.396;2022-07-29T01:52:01;2.80;;;2.00;;
13421;SDS011;6782;55.904;13.396;2022-07-29T01:54:52;2.10;;;1.90;;
13421;SDS011;6782;55.904;13.396;2022-07-29T01:57:40;5.10;;;2.20;;
13421;SDS011;6782;55.904;13.396;2022-07-29T02:00:29;5.17;;;2.37;;
13421;SDS011;6782;55.904;13.396;2022-07-29T02:03:18;4.27;;;2.40;;
13421;SDS011;6782;55.904;13.396;2022-07-29T02:06:05;4.23;;;2.40;;
13421;SDS011;6782;55.904;13.396;2022-07-29T02:08:52;4.20;;;2.20;;
13421;SDS011;6782;55.904;13.396;2022-07-29T02:11:39;3.43;;;2.47;;
13421;SDS011;6782;55.904;13.396;2022-07-29T02:14:26;3.93;;;2.37;;
13421;SDS011;6782;55.904;13.396;2022-07-29T02:17:18;3.40;;;2.20;;
13421;SDS011;6782;55.904;13.396;2022-07-29T02:20:09;2.77;;;2.17;;
13421;SDS011;6782;55.904;13.396;2022-07-29T02:22:56;2.67;;;2.47;;
13421;SDS011;6782;55.904;13.396;2022-07-29T02:25:43;3.53;;;2.00;;
13421;SDS011;6782;55.904;13.396;2022-07-29T02:28:30;2.40;;;2.10;;
13421;SDS011;6782;55.904;13.396;2022-07-29T02:31:20;4.47;;;2.30;;
13421;SDS011;6782;55.904;13.396;2022-07-29T02:34:08;3.67;;;2.03;;
13421;SDS011;6782;55.904;13.396;2022-07-29T02:36:57;2.50;;;1.80;;
13421;SDS011;6782;55.904;13.396;2022-07-29T02:39:44;2.47;;;2.00;;
13421;SDS011;6782;55.904;13.396;2022-07-29T02:42:32;2.30;;;2.10;;
13421;SDS011;6782;55.904;13.396;2022-07-29T02:45:20;3.00;;;2.30;;
13421;SDS011;6782;55.904;13.396;2022-07-29T02:48:10;2.37;;;1.90;;
13421;SDS011;6782;55.904;13.396;2022-07-29T02:51:01;2.53;;;1.90;;
13421;SDS011;6782;55.904;13.396;2022-07-29T02:53:53;2.50;;;2.07;;
13421;SDS011;6782;55.904;13.396;2022-07-29T02:56:40;2.10;;;1.90;;
13421;SDS011;6782;55.904;13.396;2022-07-29T02:59:29;2.60;;;2.00;;
13421;SDS011;6782;55.904;13.396;2022-07-29T03:02:17;2.17;;;1.80;;
13421;SDS011;6782;55.904;13.396;2022-07-29T03:05:05;3.03;;;2.20;;
13421;SDS011;6782;55.904;13.396;2022-07-29T03:07:55;3.80;;;2.17;;
13421;SDS011;6782;55.904;13.396;2022-07-29T03:10:45;2.47;;;2.10;;
13421;SDS011;6782;55.904;13.396;2022-07-29T03:13:32;2.80;;;2.30;;
13421;SDS011;6782;55.904;13.396;2022-07-29T03:16:19;3.87;;;2.10;;
13421;SDS011;6782;55.904;13.396;2022-07-29T03:19:07;2.60;;;1.90;;
13421;SDS011;6782;55.904;13.396;2022-07-29T03:21:55;3.63;;;2.10;;
13421;SDS011;6782;55.904;13.396;2022-07-29T03:24:42;3.37;;;2.10;;
13421;SDS011;6782;55.904;13.396;2022-07-29T03:27:31;2.17;;;1.60;;
13421;SDS011;6782;55.904;13.396;2022-07-29T03:30:17;3.33;;;2.00;;
13421;SDS011;6782;55.904;13.396;2022-07-29T03:33:04;4.93;;;2.90;;
13421;SDS011;6782;55.904;13.396;2022-07-29T03:35:51;2.47;;;2.20;;
13421;SDS011;6782;55.904;13.396;2022-07-29T03:38:38;5.23;;;2.50;;
13421;SDS011;6782;55.904;13.396;2022-07-29T03:41:26;2.73;;;2.00;;
13421;SDS011;6782;55.904;13.396;2022-07-29T03:44:14;2.13;;;1.77;;
13421;SDS011;6782;55.904;13.396;2022-07-29T03:47:03;3.70;;;2.17;;
13421;SDS011;6782;55.904;13.396;2022-07-29T03:49:50;3.00;;;1.70;;
13421;SDS011;6782;55.904;13.396;2022-07-29T03:52:38;2.43;;;1.77;;
13421;SDS011;6782;55.904;13.396;2022-07-29T03:55:25;4.38;;;1.77;;
13421;SDS011;6782;55.904;13.396;2022-07-29T03:58:13;3.30;;;1.70;;
13421;SDS011;6782;55.904;13.396;2022-07-29T04:01:02;2.42;;;1.65;;
13421;SDS011;6782;55.904;13.396;2022-07-29T04:03:49;3.83;;;1.97;;
13421;SDS011;6782;55.904;13.396;2022-07-29T04:06:39;3.57;;;2.10;;
13421;SDS011;6782;55.904;13.396;2022-07-29T04:09:26;3.17;;;1.80;;
13421;SDS011;6782;55.904;13.396;2022-07-29T04:12:13;2.58;;;1.70;;
13421;SDS011;6782;55.904;13.396;2022-07-29T04:15:00;3.85;;;2.00;;
13421;SDS011;6782;55.904;13.396;2022-07-29T04:17:49;4.63;;;2.03;;
13421;SDS011;6782;55.904;13.396;2022-07-29T04:20:35;4.80;;;2.28;;
13421;SDS011;6782;55.904;13.396;2022-07-29T04:23:22;4.00;;;1.98;;
13421;SDS011;6782;55.904;13.396;2022-07-29T04:26:09;2.25;;;1.83;;
13421;SDS011;6782;55.904;13.396;2022-07-29T04:28:56;4.22;;;2.30;;
13421;SDS011;6782;55.904;13.396;2022-07-29T04:31:43;3.05;;;2.10;;
13421;SDS011;6782;55.904;13.396;2022-07-29T04:34:32;5.63;;;3.33;;
13421;SDS011;6782;55.904;13.396;2022-07-29T04:37:19;6.97;;;3.10;;
13421;SDS011;6782;55.904;13.396;2022-07-29T04:40:06;7.75;;;3.42;;
13421;SDS011;6782;55.904;13.396;2022-07-29T04:42:53;8.93;;;3.80;;
13421;SDS011;6782;55.904;13.396;2022-07-29T04:45:40;7.68;;;3.72;;
13421;SDS011;6782;55.904;13.396;2022-07-29T04:48:27;10.97;;;3.63;;
13421;SDS011;6782;55.904;13.396;2022-07-29T04:51:16;5.47;;;3.20;;
13421;SDS011;6782;55.904;13.396;2022-07-29T04:54:03;10.10;;;3.93;;
13421;SDS011;6782;55.904;13.396;2022-07-29T04:56:50;6.77;;;4.00;;
13421;SDS011;6782;55.904;13.396;2022-07-29T04:59:37;7.40;;;3.87;;
13421;SDS011;6782;55.904;13.396;2022-07-29T05:02:24;6.77;;;3.77;;
13421;SDS011;6782;55.904;13.396;2022-07-29T05:05:11;5.27;;;4.07;;
13421;SDS011;6782;55.904;13.396;2022-07-29T05:07:59;8.30;;;4.00;;
13421;SDS011;6782;55.904;13.396;2022-07-29T05:10:46;7.93;;;4.77;;
13421;SDS011;6782;55.904;13.396;2022-07-29T05:13:33;5.97;;;4.00;;
13421;SDS011;6782;55.904;13.396;2022-07-29T05:16:20;8.10;;;4.40;;
13421;SDS011;6782;55.904;13.396;2022-07-29T05:19:07;7.88;;;4.55;;
13421;SDS011;6782;55.904;13.396;2022-07-29T05:21:54;4.07;;;3.77;;
13421;SDS011;6782;55.904;13.396;2022-07-29T05:24:43;4.77;;;4.30;;
13421;SDS011;6782;55.904;13.396;2022-07-29T05:27:29;7.90;;;4.27;;
13421;SDS011;6782;55.904;13.396;2022-07-29T05:30:17;6.90;;;4.50;;
13421;SDS011;6782;55.904;13.396;2022-07-29T05:33:04;7.72;;;4.70;;
13421;SDS011;6782;55.904;13.396;2022-07-29T05:35:51;5.38;;;4.25;;
13421;SDS011;6782;55.904;13.396;2022-07-29T05:38:38;5.72;;;4.00;;
13421;SDS011;6782;55.904;13.396;2022-07-29T05:41:26;5.20;;;3.92;;
13421;SDS011;6782;55.904;13.396;2022-07-29T05:44:14;3.83;;;3.50;;
13421;SDS011;6782;55.904;13.396;2022-07-29T05:47:01;3.50;;;3.20;;
13421;SDS011;6782;55.904;13.396;2022-07-29T05:49:47;4.43;;;3.13;;
13421;SDS011;6782;55.904;13.396;2022-07-29T05:52:34;4.32;;;3.33;;
13421;SDS011;6782;55.904;13.396;2022-07-29T05:55:21;4.50;;;3.35;;
13421;SDS011;6782;55.904;13.396;2022-07-29T05:58:09;3.90;;;3.50;;
13421;SDS011;6782;55.904;13.396;2022-07-29T06:00:56;3.85;;;3.45;;
13421;SDS011;6782;55.904;13.396;2022-07-29T06:03:44;4.30;;;3.40;;
13421;SDS011;6782;55.904;13.396;2022-07-29T06:06:31;3.10;;;2.63;;
13421;SDS011;6782;55.904;13.396;2022-07-29T06:09:18;6.88;;;2.88;;
13421;SDS011;6782;55.904;13.396;2022-07-29T06:12:05;4.95;;;3.30;;
13421;SDS011;6782;55.904;13.396;2022-07-29T06:14:53;3.45;;;2.65;;
13421;SDS011;6782;55.904;13.396;2022-07-29T06:17:40;5.93;;;2.67;;
13421;SDS011;6782;55.904;13.396;2022-07-29T06:20:28;7.47;;;2.50;;
13421;SDS011;6782;55.904;13.396;2022-07-29T06:23:15;3.80;;;1.73;;
13421;SDS011;6782;55.904;13.396;2022-07-29T06:26:02;4.20;;;2.42;;
13421;SDS011;6782;55.904;13.396;2022-07-29T06:28:49;5.50;;;2.40;;
13421;SDS011;6782;55.904;13.396;2022-07-29T06:31:38;3.05;;;1.75;;
13421;SDS011;6782;55.904;13.396;2022-07-29T06:34:25;3.85;;;2.20;;
13421;SDS011;6782;55.904;13.396;2022-07-29T06:37:12;4.40;;;1.77;;
13421;SDS011;6782;55.904;13.396;2022-07-29T06:39:59;3.38;;;2.20;;
13421;SDS011;6782;55.904;13.396;2022-07-29T06:43:04;3.17;;;2.08;;
13421;SDS011;6782;55.904;13.396;2022-07-29T06:45:50;4.22;;;2.20;;
13421;SDS011;6782;55.904;13.396;2022-07-29T06:48:39;4.05;;;2.00;;
13421;SDS011;6782;55.904;13.396;2022-07-29T06:51:27;6.18;;;2.55;;
13421;SDS011;6782;55.904;13.396;2022-07-29T06:54:14;6.13;;;2.75;;
13421;SDS011;6782;55.904;13.396;2022-07-29T06:57:01;5.30;;;2.10;;
13421;SDS011;6782;55.904;13.396;2022-07-29T06:59:47;5.30;;;2.20;;
13421;SDS011;6782;55.904;13.396;2022-07-29T07:02:34;4.80;;;2.10;;
13421;SDS011;6782;55.904;13.396;2022-07-29T07:05:22;5.53;;;2.10;;
13421;SDS011;6782;55.904;13.396;2022-07-29T07:08:09;5.28;;;2.10;;
13421;SDS011;6782;55.904;13.396;2022-07-29T07:10:56;4.85;;;2.15;;
13421;SDS011;6782;55.904;13.396;2022-07-29T07:13:43;6.72;;;2.30;;
13421;SDS011;6782;55.904;13.396;2022-07-29T07:16:30;3.55;;;2.00;;
13421;SDS011;6782;55.904;13.396;2022-07-29T07:19:17;5.07;;;2.05;;
13421;SDS011;6782;55.904;13.396;2022-07-29T07:22:05;3.60;;;2.03;;
13421;SDS011;6782;55.904;13.396;2022-07-29T07:24:52;3.05;;;2.00;;
13421;SDS011;6782;55.904;13.396;2022-07-29T07:27:39;7.30;;;2.15;;
13421;SDS011;6782;55.904;13.396;2022-07-29T07:30:26;2.78;;;1.70;;
13421;SDS011;6782;55.904;13.396;2022-07-29T07:33:14;3.35;;;1.90;;
13421;SDS011;6782;55.904;13.396;2022-07-29T07:36:00;4.95;;;1.90;;
13421;SDS011;6782;55.904;13.396;2022-07-29T07:38:49;4.45;;;2.15;;
13421;SDS011;6782;55.904;13.396;2022-07-29T07:41:36;3.50;;;1.95;;
13421;SDS011;6782;55.904;13.396;2022-07-29T07:44:23;1.75;;;1.58;;
13421;SDS011;6782;55.904;13.396;2022-07-29T07:47:10;4.45;;;1.63;;
13421;SDS011;6782;55.904;13.396;2022-07-29T07:49:56;2.60;;;1.65;;
13421;SDS011;6782;55.904;13.396;2022-07-29T07:52:47;3.53;;;1.88;;
13421;SDS011;6782;55.904;13.396;2022-07-29T07:55:38;3.75;;;1.75;;
13421;SDS011;6782;55.904;13.396;2022-07-29T07:58:25;2.35;;;1.63;;
13421;SDS011;6782;55.904;13.396;2022-07-29T08:01:12;2.90;;;1.65;;
13421;SDS011;6782;55.904;13.396;2022-07-29T08:03:59;4.25;;;1.95;;
13421;SDS011;6782;55.904;13.396;2022-07-29T08:06:45;3.17;;;1.80;;
13421;SDS011;6782;55.904;13.396;2022-07-29T08:09:35;4.18;;;2.03;;
13421;SDS011;6782;55.904;13.396;2022-07-29T08:12:23;2.50;;;1.50;;
13421;SDS011;6782;55.904;13.396;2022-07-29T08:15:10;2.63;;;1.60;;
13421;SDS011;6782;55.904;13.396;2022-07-29T08:17:56;2.05;;;1.65;;
13421;SDS011;6782;55.904;13.396;2022-07-29T08:20:43;5.55;;;1.63;;
13421;SDS011;6782;55.904;13.396;2022-07-29T08:23:30;2.70;;;1.73;;
13421;SDS011;6782;55.904;13.396;2022-07-29T08:26:23;2.80;;;1.58;;
13421;SDS011;6782;55.904;13.396;2022-07-29T08:29:12;4.50;;;1.90;;
13421;SDS011;6782;55.904;13.396;2022-07-29T08:31:59;2.30;;;1.60;;
13421;SDS011;6782;55.904;13.396;2022-07-29T08:34:45;1.90;;;1.60;;
13421;SDS011;6782;55.904;13.396;2022-07-29T08:37:32;2.97;;;1.83;;
13421;SDS011;6782;55.904;13.396;2022-07-29T08:40:19;3.47;;;2.03;;
13421;SDS011;6782;55.904;13.396;2022-07-29T08:43:06;2.50;;;1.70;;
13421;SDS011;6782;55.904;13.396;2022-07-29T08:45:55;2.85;;;1.95;;
13421;SDS011;6782;55.904;13.396;2022-07-29T08:48:41;5.35;;;1.92;;
13421;SDS011;6782;55.904;13.396;2022-07-29T08:51:28;3.58;;;1.85;;
13421;SDS011;6782;55.904;13.396;2022-07-29T08:54:17;2.95;;;1.70;;
13421;SDS011;6782;55.904;13.396;2022-07-29T08:57:04;2.90;;;2.00;;
13421;SDS011;6782;55.904;13.396;2022-07-29T08:59:51;2.97;;;1.70;;
13421;SDS011;6782;55.904;13.396;2022-07-29T09:02:41;3.92;;;1.55;;
13421;SDS011;6782;55.904;13.396;2022-07-29T09:05:29;1.63;;;1.38;;
13421;SDS011;6782;55.904;13.396;2022-07-29T09:08:18;3.92;;;1.70;;
13421;SDS011;6782;55.904;13.396;2022-07-29T09:11:05;3.95;;;1.90;;
13421;SDS011;6782;55.904;13.396;2022-07-29T09:13:52;3.40;;;1.60;;
13421;SDS011;6782;55.904;13.396;2022-07-29T09:16:43;2.53;;;1.50;;
13421;SDS011;6782;55.904;13.396;2022-07-29T09:19:32;3.13;;;1.42;;
13421;SDS011;6782;55.904;13.396;2022-07-29T09:22:28;3.30;;;1.48;;
13421;SDS011;6782;55.904;13.396;2022-07-29T09:25:15;5.72;;;1.88;;
13421;SDS011;6782;55.904;13.396;2022-07-29T09:28:18;3.22;;;1.35;;
13421;SDS011;6782;55.904;13.396;2022-07-29T09:31:04;2.22;;;1.50;;
13421;SDS011;6782;55.904;13.396;2022-07-29T09:33:54;2.80;;;1.60;;
13421;SDS011;6782;55.904;13.396;2022-07-29T09:36:46;3.30;;;1.88;;
13421;SDS011;6782;55.904;13.396;2022-07-29T09:39:33;3.15;;;1.40;;
13421;SDS011;6782;55.904;13.396;2022-07-29T09:42:27;4.53;;;1.35;;
13421;SDS011;6782;55.904;13.396;2022-07-29T09:45:25;2.22;;;1.50;;
13421;SDS011;6782;55.904;13.396;2022-07-29T09:48:13;1.88;;;1.38;;
13421;SDS011;6782;55.904;13.396;2022-07-29T09:51:00;2.42;;;1.40;;
13421;SDS011;6782;55.904;13.396;2022-07-29T09:53:31;2.45;;;1.40;;
13421;SDS011;6782;55.904;13.396;2022-07-29T09:55:58;2.13;;;1.40;;
13421;SDS011;6782;55.904;13.396;2022-07-29T09:58:25;4.03;;;1.40;;
13421;SDS011;6782;55.904;13.396;2022-07-29T10:00:52;4.38;;;1.55;;
13421;SDS011;6782;55.904;13.396;2022-07-29T10:03:20;4.22;;;1.45;;
13421;SDS011;6782;55.904;13.396;2022-07-29T10:06:03;3.00;;;1.50;;
13421;SDS011;6782;55.904;13.396;2022-07-29T10:08:31;4.18;;;1.60;;
13421;SDS011;6782;55.904;13.396;2022-07-29T10:11:08;3.28;;;1.40;;
13421;SDS011;6782;55.904;13.396;2022-07-29T10:13:35;3.33;;;1.60;;
13421;SDS011;6782;55.904;13.396;2022-07-29T10:16:01;2.05;;;1.50;;
13421;SDS011;6782;55.904;13.396;2022-07-29T10:18:28;2.70;;;1.42;;
13421;SDS011;6782;55.904;13.396;2022-07-29T10:20:55;1.42;;;1.30;;
13421;SDS011;6782;55.904;13.396;2022-07-29T10:23:22;3.92;;;1.90;;
13421;SDS011;6782;55.904;13.396;2022-07-29T10:25:52;3.45;;;1.50;;
13421;SDS011;6782;55.904;13.396;2022-07-29T10:28:19;1.88;;;1.48;;
13421;SDS011;6782;55.904;13.396;2022-07-29T10:30:45;3.22;;;1.77;;
13421;SDS011;6782;55.904;13.396;2022-07-29T10:33:18;2.72;;;1.33;;
13421;SDS011;6782;55.904;13.396;2022-07-29T10:35:52;2.92;;;1.38;;
13421;SDS011;6782;55.904;13.396;2022-07-29T10:38:28;13.02;;;2.78;;
13421;SDS011;6782;55.904;13.396;2022-07-29T10:41:11;6.00;;;2.08;;
13421;SDS011;6782;55.904;13.396;2022-07-29T10:43:56;4.60;;;1.55;;
13421;SDS011;6782;55.904;13.396;2022-07-29T10:46:23;2.30;;;1.60;;
13421;SDS011;6782;55.904;13.396;2022-07-29T10:51:54;1.55;;;1.25;;
13421;SDS011;6782;55.904;13.396;2022-07-29T10:54:35;2.95;;;1.48;;
13421;SDS011;6782;55.904;13.396;2022-07-29T10:57:11;4.63;;;1.90;;
13421;SDS011;6782;55.904;13.396;2022-07-29T10:59:41;2.00;;;1.73;;
13421;SDS011;6782;55.904;13.396;2022-07-29T11:05:00;2.42;;;1.23;;
13421;SDS011;6782;55.904;13.396;2022-07-29T11:07:28;2.20;;;1.52;;
13421;SDS011;6782;55.904;13.396;2022-07-29T11:12:57;3.53;;;1.92;;
13421;SDS011;6782;55.904;13.396;2022-07-29T11:15:24;2.72;;;1.30;;
13421;SDS011;6782;55.904;13.396;2022-07-29T11:18:04;1.50;;;1.33;;
13421;SDS011;6782;55.904;13.396;2022-07-29T11:20:35;3.92;;;1.63;;
13421;SDS011;6782;55.904;13.396;2022-07-29T11:23:24;3.63;;;1.50;;
13421;SDS011;6782;55.904;13.396;2022-07-29T11:26:13;2.25;;;1.30;;
13421;SDS011;6782;55.904;13.396;2022-07-29T11:28:48;2.10;;;1.30;;
13421;SDS011;6782;55.904;13.396;2022-07-29T11:31:16;4.45;;;1.52;;
13421;SDS011;6782;55.904;13.396;2022-07-29T11:33:43;3.90;;;1.25;;
13421;SDS011;6782;55.904;13.396;2022-07-29T11:36:13;3.50;;;1.50;;
13421;SDS011;6782;55.904;13.396;2022-07-29T11:38:39;1.98;;;1.25;;
13421;SDS011;6782;55.904;13.396;2022-07-29T11:41:23;2.95;;;1.33;;
13421;SDS011;6782;55.904;13.396;2022-07-29T11:43:53;2.63;;;1.45;;
13421;SDS011;6782;55.904;13.396;2022-07-29T11:49:05;2.22;;;1.50;;
13421;SDS011;6782;55.904;13.396;2022-07-29T11:51:33;1.95;;;1.50;;
13421;SDS011;6782;55.904;13.396;2022-07-29T11:53:59;1.63;;;1.50;;
13421;SDS011;6782;55.904;13.396;2022-07-29T11:56:26;4.80;;;1.98;;
13421;SDS011;6782;55.904;13.396;2022-07-29T11:59:03;2.58;;;1.30;;
13421;SDS011;6782;55.904;13.396;2022-07-29T12:01:31;2.28;;;1.40;;
13421;SDS011;6782;55.904;13.396;2022-07-29T12:04:02;2.10;;;1.40;;
13421;SDS011;6782;55.904;13.396;2022-07-29T12:06:29;1.80;;;1.38;;
13421;SDS011;6782;55.904;13.396;2022-07-29T12:08:55;2.85;;;2.00;;
13421;SDS011;6782;55.904;13.396;2022-07-29T12:11:23;2.65;;;1.92;;
13421;SDS011;6782;55.904;13.396;2022-07-29T12:13:50;2.22;;;1.50;;
13421;SDS011;6782;55.904;13.396;2022-07-29T12:16:18;2.75;;;1.50;;
13421;SDS011;6782;55.904;13.396;2022-07-29T12:18:54;2.83;;;1.60;;
13421;SDS011;6782;55.904;13.396;2022-07-29T12:21:20;2.97;;;1.50;;
13421;SDS011;6782;55.904;13.396;2022-07-29T12:23:51;2.03;;;1.75;;
13421;SDS011;6782;55.904;13.396;2022-07-29T12:26:19;3.17;;;1.50;;
13421;SDS011;6782;55.904;13.396;2022-07-29T12:28:45;2.58;;;1.75;;
13421;SDS011;6782;55.904;13.396;2022-07-29T12:31:12;2.88;;;1.40;;
13421;SDS011;6782;55.904;13.396;2022-07-29T12:33:41;4.07;;;1.75;;
13421;SDS011;6782;55.904;13.396;2022-07-29T12:36:09;2.88;;;1.63;;
13421;SDS011;6782;55.904;13.396;2022-07-29T12:38:36;1.83;;;1.40;;
13421;SDS011;6782;55.904;13.396;2022-07-29T12:41:06;2.85;;;1.73;;
13421;SDS011;6782;55.904;13.396;2022-07-29T12:43:33;3.35;;;1.67;;
13421;SDS011;6782;55.904;13.396;2022-07-29T12:46:11;1.90;;;1.80;;
13421;SDS011;6782;55.904;13.396;2022-07-29T12:48:43;2.28;;;1.70;;
13421;SDS011;6782;55.904;13.396;2022-07-29T12:51:11;2.05;;;1.33;;
13421;SDS011;6782;55.904;13.396;2022-07-29T12:53:40;6.18;;;2.33;;
13421;SDS011;6782;55.904;13.396;2022-07-29T12:56:09;2.60;;;1.50;;
13421;SDS011;6782;55.904;13.396;2022-07-29T12:58:42;2.20;;;1.52;;
13421;SDS011;6782;55.904;13.396;2022-07-29T13:01:09;1.83;;;1.45;;
13421;SDS011;6782;55.904;13.396;2022-07-29T13:03:47;3.53;;;1.73;;
13421;SDS011;6782;55.904;13.396;2022-07-29T13:06:27;1.88;;;1.50;;
13421;SDS011;6782;55.904;13.396;2022-07-29T13:09:00;2.65;;;1.70;;
13421;SDS011;6782;55.904;13.396;2022-07-29T13:11:29;2.22;;;1.70;;
13421;SDS011;6782;55.904;13.396;2022-07-29T13:13:57;7.05;;;3.10;;
13421;SDS011;6782;55.904;13.396;2022-07-29T13:16:24;2.13;;;1.10;;
13421;SDS011;6782;55.904;13.396;2022-07-29T13:19:03;2.50;;;1.60;;
13421;SDS011;6782;55.904;13.396;2022-07-29T13:21:31;1.92;;;1.48;;
13421;SDS011;6782;55.904;13.396;2022-07-29T13:23:57;2.80;;;1.63;;
13421;SDS011;6782;55.904;13.396;2022-07-29T13:26:28;2.20;;;1.63;;
13421;SDS011;6782;55.904;13.396;2022-07-29T13:28:58;3.53;;;1.52;;
13421;SDS011;6782;55.904;13.396;2022-07-29T13:31:25;2.53;;;1.60;;
13421;SDS011;6782;55.904;13.396;2022-07-29T13:33:52;3.55;;;1.90;;
13421;SDS011;6782;55.904;13.396;2022-07-29T13:36:20;4.03;;;1.77;;
13421;SDS011;6782;55.904;13.396;2022-07-29T13:38:50;2.28;;;1.70;;
13421;SDS011;6782;55.904;13.396;2022-07-29T13:41:17;3.90;;;1.90;;
13421;SDS011;6782;55.904;13.396;2022-07-29T13:43:48;2.75;;;1.50;;
13421;SDS011;6782;55.904;13.396;2022-07-29T13:46:15;3.60;;;1.80;;
13421;SDS011;6782;55.904;13.396;2022-07-29T13:48:45;2.10;;;1.50;;
13421;SDS011;6782;55.904;13.396;2022-07-29T13:51:12;2.42;;;1.48;;
13421;SDS011;6782;55.904;13.396;2022-07-29T13:53:41;3.35;;;1.48;;
13421;SDS011;6782;55.904;13.396;2022-07-29T13:56:08;4.10;;;1.70;;
13421;SDS011;6782;55.904;13.396;2022-07-29T13:58:35;2.35;;;1.90;;
13421;SDS011;6782;55.904;13.396;2022-07-29T14:01:03;2.45;;;1.50;;
13421;SDS011;6782;55.904;13.396;2022-07-29T14:03:30;3.20;;;1.55;;
13421;SDS011;6782;55.904;13.396;2022-07-29T14:05:57;3.65;;;1.70;;
13421;SDS011;6782;55.904;13.396;2022-07-29T14:08:25;3.42;;;1.50;;
13421;SDS011;6782;55.904;13.396;2022-07-29T14:10:53;2.40;;;1.55;;
13421;SDS011;6782;55.904;13.396;2022-07-29T14:13:20;2.40;;;1.65;;
13421;SDS011;6782;55.904;13.396;2022-07-29T14:15:46;2.20;;;1.38;;
13421;SDS011;6782;55.904;13.396;2022-07-29T14:18:13;2.15;;;1.58;;
13421;SDS011;6782;55.904;13.396;2022-07-29T14:20:41;2.78;;;1.50;;
13421;SDS011;6782;55.904;13.396;2022-07-29T14:23:07;2.88;;;1.50;;
13421;SDS011;6782;55.904;13.396;2022-07-29T14:25:34;2.63;;;1.52;;
13421;SDS011;6782;55.904;13.396;2022-07-29T14:28:03;2.13;;;1.40;;
13421;SDS011;6782;55.904;13.396;2022-07-29T14:30:30;2.72;;;1.88;;
13421;SDS011;6782;55.904;13.396;2022-07-29T14:32:56;2.45;;;1.40;;
13421;SDS011;6782;55.904;13.396;2022-07-29T14:35:23;3.15;;;1.27;;
13421;SDS011;6782;55.904;13.396;2022-07-29T14:37:50;1.65;;;1.30;;
13421;SDS011;6782;55.904;13.396;2022-07-29T14:40:17;2.15;;;1.13;;
13421;SDS011;6782;55.904;13.396;2022-07-29T14:42:43;3.60;;;1.67;;
13421;SDS011;6782;55.904;13.396;2022-07-29T14:45:12;1.63;;;1.40;;
13421;SDS011;6782;55.904;13.396;2022-07-29T14:47:39;1.77;;;1.60;;
13421;SDS011;6782;55.904;13.396;2022-07-29T14:50:06;2.10;;;1.50;;
13421;SDS011;6782;55.904;13.396;2022-07-29T14:52:33;2.38;;;1.30;;
13421;SDS011;6782;55.904;13.396;2022-07-29T14:55:00;3.28;;;1.77;;
13421;SDS011;6782;55.904;13.396;2022-07-29T14:57:27;3.03;;;1.35;;
13421;SDS011;6782;55.904;13.396;2022-07-29T14:59:54;2.22;;;1.38;;
13421;SDS011;6782;55.904;13.396;2022-07-29T15:02:22;3.78;;;1.60;;
13421;SDS011;6782;55.904;13.396;2022-07-29T15:04:48;2.50;;;1.40;;
13421;SDS011;6782;55.904;13.396;2022-07-29T15:07:15;2.65;;;1.50;;
13421;SDS011;6782;55.904;13.396;2022-07-29T15:09:42;2.65;;;1.52;;
13421;SDS011;6782;55.904;13.396;2022-07-29T15:12:10;2.92;;;2.40;;
13421;SDS011;6782;55.904;13.396;2022-07-29T15:14:37;3.28;;;1.40;;
13421;SDS011;6782;55.904;13.396;2022-07-29T15:17:04;14.00;;;2.38;;
13421;SDS011;6782;55.904;13.396;2022-07-29T15:19:32;1.95;;;1.48;;
13421;SDS011;6782;55.904;13.396;2022-07-29T15:21:59;2.25;;;1.38;;
13421;SDS011;6782;55.904;13.396;2022-07-29T15:24:26;6.45;;;2.03;;
13421;SDS011;6782;55.904;13.396;2022-07-29T15:26:58;3.78;;;2.13;;
13421;SDS011;6782;55.904;13.396;2022-07-29T15:29:26;4.68;;;1.90;;
13421;SDS011;6782;55.904;13.396;2022-07-29T15:31:53;1.65;;;1.52;;
13421;SDS011;6782;55.904;13.396;2022-07-29T15:34:20;1.45;;;1.35;;
13421;SDS011;6782;55.904;13.396;2022-07-29T15:36:50;2.65;;;1.70;;
13421;SDS011;6782;55.904;13.396;2022-07-29T15:39:17;6.72;;;1.60;;
13421;SDS011;6782;55.904;13.396;2022-07-29T15:41:44;1.50;;;1.40;;
13421;SDS011;6782;55.904;13.396;2022-07-29T15:44:12;5.05;;;1.70;;
13421;SDS011;6782;55.904;13.396;2022-07-29T15:46:39;2.42;;;1.48;;
13421;SDS011;6782;55.904;13.396;2022-07-29T15:49:23;3.78;;;2.00;;
13421;SDS011;6782;55.904;13.396;2022-07-29T15:51:56;4.05;;;1.80;;
13421;SDS011;6782;55.904;13.396;2022-07-29T15:54:24;4.70;;;1.73;;
13421;SDS011;6782;55.904;13.396;2022-07-29T15:56:52;12.73;;;2.47;;
13421;SDS011;6782;55.904;13.396;2022-07-29T15:59:22;8.65;;;4.22;;
13421;SDS011;6782;55.904;13.396;2022-07-29T16:01:49;4.95;;;4.38;;
13421;SDS011;6782;55.904;13.396;2022-07-29T16:04:16;3.65;;;3.28;;
13421;SDS011;6782;55.904;13.396;2022-07-29T16:06:45;4.15;;;3.15;;
13421;SDS011;6782;55.904;13.396;2022-07-29T16:09:14;3.42;;;2.50;;
13421;SDS011;6782;55.904;13.396;2022-07-29T16:11:40;2.15;;;1.95;;
13421;SDS011;6782;55.904;13.396;2022-07-29T16:14:08;1.98;;;1.77;;
13421;SDS011;6782;55.904;13.396;2022-07-29T16:16:35;3.33;;;1.73;;
13421;SDS011;6782;55.904;13.396;2022-07-29T16:19:02;3.25;;;1.95;;
13421;SDS011;6782;55.904;13.396;2022-07-29T16:21:28;2.53;;;1.73;;